^^
Saratoga-Weather Station Historical Data
Daily Summary for March 03, 2021 Units:  Metric    English   Both
Daily Weekly Monthly Yearly Custom
  High: Low: Average:
Temperature: 9.2 °C 2.7 °C 4.6 °C
Dew Point: 4.6 °C 1.4 °C 2.5 °C
Humidity: 92% 73% 87%
Wind Speed: 4.7km/h 0km/h 0.2km/h
Wind Gust: 4.8km/h - -
Wind- - East
Pressure: 1029.8 hPa 1028.8 hPa -
Precipitation: 0.0 mm    
Historical Graphs
 
 
Tabular Data for March 03, 2021
Time Temperature Dew Point Pressure Wind Wind Speed Wind Gust Humidity Rainfall Rate (Hourly) solar
00:02 5.4 °C 2.7 °C 1029.8 hPa Calm     83% 0.0 mm 0 W/m2
00:07 5.4 °C 2.6 °C 1029.8 hPa Calm     82% 0.0 mm 0 W/m2
00:12 5.4 °C 2.6 °C 1029.8 hPa Calm     82% 0.0 mm 0 W/m2
00:17 5.4 °C 2.7 °C 1029.8 hPa Calm     83% 0.0 mm 0 W/m2
00:22 5.3 °C 2.5 °C 1029.8 hPa Calm     82% 0.0 mm 0 W/m2
00:27 5.3 °C 2.5 °C 1029.5 hPa Calm     82% 0.0 mm 0 W/m2
00:32 5.2 °C 2.4 °C 1029.8 hPa Calm     82% 0.0 mm 0 W/m2
00:37 5.1 °C 2.3 °C 1029.8 hPa Calm     82% 0.0 mm 0 W/m2
00:42 5.1 °C 2.3 °C 1029.5 hPa Calm     82% 0.0 mm 0 W/m2
00:47 5.1 °C 2.5 °C 1029.8 hPa Calm     83% 0.0 mm 0 W/m2
00:52 5.1 °C 2.5 °C 1029.8 hPa Calm     83% 0.0 mm 0 W/m2
00:57 5.1 °C 2.5 °C 1029.8 hPa Calm     83% 0.0 mm 0 W/m2
01:02 5.1 °C 2.5 °C 1029.5 hPa Calm     83% 0.0 mm 0 W/m2
01:07 5 °C 2.5 °C 1029.8 hPa Calm     84% 0.0 mm 0 W/m2
01:12 4.9 °C 2.4 °C 1029.5 hPa Calm     84% 0.0 mm 0 W/m2
01:17 4.8 °C 2.3 °C 1029.5 hPa Calm     84% 0.0 mm 0 W/m2
01:22 4.7 °C 2.2 °C 1029.5 hPa Calm     84% 0.0 mm 0 W/m2
01:27 4.7 °C 2.4 °C 1029.5 hPa Calm     85% 0.0 mm 0 W/m2
01:32 4.7 °C 2.4 °C 1029.5 hPa Calm     85% 0.0 mm 0 W/m2
01:37 4.6 °C 2.5 °C 1029.5 hPa Calm     86% 0.0 mm 0 W/m2
01:42 4.6 °C 2.5 °C 1029.5 hPa Calm     86% 0.0 mm 0 W/m2
01:47 4.5 °C 2.4 °C 1029.5 hPa Calm     86% 0.0 mm 0 W/m2
01:52 4.4 °C 2.3 °C 1029.5 hPa Calm     86% 0.0 mm 0 W/m2
01:57 4.4 °C 2.3 °C 1029.5 hPa Calm     86% 0.0 mm 0 W/m2
02:02 4.4 °C 2.3 °C 1029.5 hPa Calm     86% 0.0 mm 0 W/m2
02:07 4.4 °C 2.3 °C 1029.5 hPa Calm     86% 0.0 mm 0 W/m2
02:12 4.4 °C 2.3 °C 1029.5 hPa Calm     86% 0.0 mm 0 W/m2
02:17 4.4 °C 2.4 °C 1029.5 hPa Calm     87% 0.0 mm 0 W/m2
02:22 4.6 °C 2.6 °C 1029.5 hPa Calm     87% 0.0 mm 0 W/m2
02:27 4.6 °C 2.5 °C 1029.5 hPa Calm     86% 0.0 mm 0 W/m2
02:32 4.6 °C 2.5 °C 1029.5 hPa Calm     86% 0.0 mm 0 W/m2
02:37 4.6 °C 2.5 °C 1029.5 hPa Calm     86% 0.0 mm 0 W/m2
02:42 4.6 °C 2.5 °C 1029.5 hPa Calm   1.6 km/h 86% 0.0 mm 0 W/m2
02:47 4.6 °C 2.5 °C 1029.5 hPa Calm     86% 0.0 mm 0 W/m2
02:52 4.6 °C 2.5 °C 1029.5 hPa Calm     86% 0.0 mm 0 W/m2
02:57 4.5 °C 2.4 °C 1029.5 hPa Calm     86% 0.0 mm 0 W/m2
03:02 4.5 °C 2.4 °C 1029.5 hPa Calm     86% 0.0 mm 0 W/m2
03:07 4.4 °C 2.3 °C 1029.1 hPa Calm     86% 0.0 mm 0 W/m2
03:12 4.4 °C 2.4 °C 1029.1 hPa Calm     87% 0.0 mm 0 W/m2
03:22 4.3 °C 2.3 °C 1029.1 hPa Calm     87% 0.0 mm 0 W/m2
03:27 4.3 °C 2.5 °C 1029.1 hPa Calm     88% 0.0 mm 0 W/m2
03:32 4.3 °C 2.5 °C 1029.1 hPa Calm   1.6 km/h 88% 0.0 mm 0 W/m2
03:37 4.4 °C 2.6 °C 1029.1 hPa Calm   1.6 km/h 88% 0.0 mm 0 W/m2
03:42 4.4 °C 2.6 °C 1028.8 hPa Calm     88% 0.0 mm 0 W/m2
03:47 4.4 °C 2.6 °C 1029.1 hPa Calm     88% 0.0 mm 0 W/m2
03:52 4.4 °C 2.6 °C 1028.8 hPa Calm     88% 0.0 mm 0 W/m2
03:58 4.4 °C 2.6 °C 1029.1 hPa Calm     88% 0.0 mm 0 W/m2
04:03 4.3 °C 2.3 °C 1029.1 hPa Calm     87% 0.0 mm 0 W/m2
04:08 4.3 °C 2.3 °C 1029.1 hPa Calm     87% 0.0 mm 0 W/m2
04:13 4.3 °C 2.3 °C 1029.1 hPa Calm     87% 0.0 mm 0 W/m2
04:18 4.2 °C 2.2 °C 1029.1 hPa Calm     87% 0.0 mm 0 W/m2
04:23 4.2 °C 2.2 °C 1029.1 hPa South 1.4 km/h 1.6 km/h 87% 0.0 mm 0 W/m2
04:28 4.3 °C 2.3 °C 1029.1 hPa Calm     87% 0.0 mm 0 W/m2
04:33 4.3 °C 2.5 °C 1029.1 hPa Calm     88% 0.0 mm 0 W/m2
04:38 4.3 °C 2.5 °C 1029.1 hPa Calm     88% 0.0 mm 0 W/m2
04:43 4.3 °C 2.5 °C 1029.1 hPa Calm     88% 0.0 mm 0 W/m2
04:48 4.3 °C 2.5 °C 1029.1 hPa Calm     88% 0.0 mm 0 W/m2
04:53 4.3 °C 2.5 °C 1029.1 hPa Calm     88% 0.0 mm 0 W/m2
04:58 4.3 °C 2.5 °C 1029.1 hPa Calm     88% 0.0 mm 0 W/m2
05:03 4.3 °C 2.5 °C 1029.1 hPa Calm     88% 0.0 mm 0 W/m2
05:08 4.3 °C 2.5 °C 1029.1 hPa Calm     88% 0.0 mm 0 W/m2
05:13 4.3 °C 2.5 °C 1029.1 hPa Calm     88% 0.0 mm 0 W/m2
05:18 4.2 °C 2.4 °C 1029.1 hPa Calm     88% 0.0 mm 0 W/m2
05:23 4.2 °C 2.4 °C 1029.1 hPa Calm     88% 0.0 mm 0 W/m2
05:28 4.1 °C 2.3 °C 1029.1 hPa Calm     88% 0.0 mm 0 W/m2
05:33 3.9 °C 2.1 °C 1029.1 hPa Calm     88% 0.0 mm 0 W/m2
05:38 3.9 °C 2.1 °C 1029.1 hPa Calm     88% 0.0 mm 0 W/m2
05:43 3.8 °C 2 °C 1029.1 hPa Calm     88% 0.0 mm 0 W/m2
05:48 3.8 °C 2 °C 1029.1 hPa Calm     88% 0.0 mm 0 W/m2
05:53 3.7 °C 1.9 °C 1029.1 hPa Calm     88% 0.0 mm 0 W/m2
05:58 3.7 °C 2.1 °C 1029.1 hPa Calm     89% 0.0 mm 0 W/m2
06:03 3.6 °C 2 °C 1029.1 hPa Calm     89% 0.0 mm 0 W/m2
06:08 3.6 °C 2 °C 1029.1 hPa Calm     89% 0.0 mm 0 W/m2
06:13 3.5 °C 1.9 °C 1029.1 hPa Calm     89% 0.0 mm 0 W/m2
06:18 3.5 °C 1.9 °C 1029.1 hPa Calm     89% 0.0 mm 0 W/m2
06:23 3.4 °C 1.8 °C 1029.1 hPa Calm     89% 0.0 mm 0 W/m2
06:28 3.3 °C 1.7 °C 1029.1 hPa Calm     89% 0.0 mm 0 W/m2
06:33 3.3 °C 1.7 °C 1028.8 hPa Calm     89% 0.0 mm 0 W/m2
06:38 3.3 °C 1.8 °C 1028.8 hPa Calm     90% 0.0 mm 0 W/m2
06:43 3.3 °C 1.8 °C 1029.1 hPa Calm     90% 0.0 mm 0 W/m2
06:48 3.3 °C 1.8 °C 1028.8 hPa Calm     90% 0.0 mm 0 W/m2
06:53 3.2 °C 1.7 °C 1028.8 hPa Calm     90% 0.0 mm 0 W/m2
06:58 3.2 °C 1.7 °C 1028.8 hPa Calm     90% 0.0 mm 0 W/m2
07:03 3.1 °C 1.6 °C 1029.1 hPa Calm     90% 0.0 mm 0 W/m2
07:08 3.1 °C 1.6 °C 1029.1 hPa Calm     90% 0.0 mm 0 W/m2
07:13 3.1 °C 1.6 °C 1028.8 hPa Calm     90% 0.0 mm 0 W/m2
07:18 2.9 °C 1.4 °C 1028.8 hPa Calm     90% 0.0 mm 0 W/m2
07:23 2.9 °C 1.4 °C 1028.8 hPa Calm     90% 0.0 mm 5 W/m2
07:28 2.9 °C 1.6 °C 1028.8 hPa Calm     91% 0.0 mm 7 W/m2
07:33 2.9 °C 1.6 °C 1029.1 hPa Calm     91% 0.0 mm 9 W/m2
07:38 2.9 °C 1.6 °C 1029.1 hPa Calm     91% 0.0 mm 9 W/m2
07:43 2.9 °C 1.6 °C 1029.1 hPa Calm     91% 0.0 mm 12 W/m2
07:48 2.9 °C 1.6 °C 1029.1 hPa Calm     91% 0.0 mm 12 W/m2
07:53 2.9 °C 1.6 °C 1029.1 hPa Calm     91% 0.0 mm 14 W/m2
07:58 2.9 °C 1.6 °C 1029.1 hPa Calm     91% 0.0 mm 18 W/m2
08:03 2.8 °C 1.5 °C 1029.1 hPa Calm     91% 0.0 mm 21 W/m2
08:08 2.8 °C 1.5 °C 1029.1 hPa Calm     91% 0.0 mm 28 W/m2
08:13 2.7 °C 1.4 °C 1029.5 hPa Calm     91% 0.0 mm 35 W/m2
08:18 2.8 °C 1.5 °C 1029.1 hPa Calm     91% 0.0 mm 44 W/m2
08:23 2.8 °C 1.5 °C 1029.1 hPa South 1.4 km/h 1.6 km/h 91% 0.0 mm 56 W/m2
08:28 2.9 °C 1.7 °C 1029.1 hPa Calm     92% 0.0 mm 62 W/m2
08:33 3.1 °C 1.9 °C 1029.1 hPa Calm     92% 0.0 mm 69 W/m2
08:38 3.2 °C 2 °C 1029.5 hPa Calm     92% 0.0 mm 74 W/m2
08:43 3.3 °C 2.1 °C 1029.5 hPa Calm     92% 0.0 mm 95 W/m2
08:48 3.4 °C 2.2 °C 1029.5 hPa Calm     92% 0.0 mm 109 W/m2
08:53 3.6 °C 2.4 °C 1029.5 hPa Calm     92% 0.0 mm 121 W/m2
08:58 3.7 °C 2.4 °C 1029.5 hPa Calm     91% 0.0 mm 130 W/m2
09:03 3.9 °C 2.6 °C 1029.5 hPa Calm     91% 0.0 mm 141 W/m2
09:08 4.2 °C 3 °C 1029.5 hPa Calm     92% 0.0 mm 158 W/m2
09:13 4.5 °C 3.2 °C 1029.5 hPa Calm     91% 0.0 mm 167 W/m2
09:18 4.8 °C 3.3 °C 1029.5 hPa Calm     90% 0.0 mm 178 W/m2
09:23 5.2 °C 3.7 °C 1029.5 hPa Calm     90% 0.0 mm 190 W/m2
09:28 5.5 °C 3.7 °C 1029.5 hPa Calm     88% 0.0 mm 192 W/m2
09:33 5.8 °C 3.8 °C 1029.5 hPa Calm     87% 0.0 mm 209 W/m2
09:38 6.2 °C 4 °C 1029.5 hPa ESE 1.4 km/h 1.6 km/h 86% 0.0 mm 221 W/m2
09:43 6.5 °C 4 °C 1029.5 hPa Calm   3.2 km/h 84% 0.0 mm 232 W/m2
09:48 6.8 °C 3.9 °C 1029.5 hPa East 4.7 km/h 4.8 km/h 82% 0.0 mm 244 W/m2
09:53 6.9 °C 3.9 °C 1029.5 hPa Calm   1.6 km/h 81% 0.0 mm 257 W/m2
09:58 7.1 °C 4.1 °C 1029.5 hPa Calm   3.2 km/h 81% 0.0 mm 260 W/m2
10:03 7.3 °C 4.1 °C 1029.5 hPa Calm   3.2 km/h 80% 0.0 mm 269 W/m2
10:08 7.5 °C 3.9 °C 1029.5 hPa East 3.2 km/h 3.2 km/h 78% 0.0 mm 278 W/m2
10:13 7.7 °C 4.1 °C 1029.5 hPa East 1.4 km/h 3.2 km/h 78% 0.0 mm 288 W/m2
10:18 7.8 °C 4 °C 1029.1 hPa ENE 3.2 km/h 3.2 km/h 77% 0.0 mm 295 W/m2
10:24 8.1 °C 4.3 °C 1029.1 hPa East 3.2 km/h 3.2 km/h 77% 0.0 mm 304 W/m2
10:29 8.2 °C 4 °C 1029.1 hPa ENE 1.4 km/h 4.8 km/h 75% 0.0 mm 248 W/m2
10:34 8.2 °C 4.2 °C 1029.1 hPa ENE 1.4 km/h 3.2 km/h 76% 0.0 mm 311 W/m2
10:39 8.3 °C 4.1 °C 1029.1 hPa ENE 3.2 km/h 4.8 km/h 75% 0.0 mm 323 W/m2
10:44 8.4 °C 4.2 °C 1029.1 hPa Calm   3.2 km/h 75% 0.0 mm 330 W/m2
10:49 8.7 °C 4.5 °C 1029.1 hPa East 3.2 km/h 4.8 km/h 75% 0.0 mm 343 W/m2
10:54 9 °C 4.6 °C 1029.1 hPa East 1.4 km/h 3.2 km/h 74% 0.0 mm 350 W/m2
10:59 9.2 °C 4.6 °C 1028.8 hPa East 1.4 km/h 4.8 km/h 73% 0.0 mm 353 W/m2
Juneau County Weather
Compliments of Weather Underground - 2 mb